createdAt,value
2018-01-15T00:00:20.752Z,16.85
2018-01-15T00:02:49.112Z,18.60
2018-01-15T00:05:16.726Z,20.05
2018-01-15T00:07:44.327Z,18.65
2018-01-15T00:10:11.932Z,19.23
2018-01-15T00:12:39.549Z,16.87
2018-01-15T00:15:07.148Z,17.08
2018-01-15T00:17:34.872Z,19.17
2018-01-15T00:20:02.461Z,18.12
2018-01-15T00:22:33.573Z,17.95
2018-01-15T00:25:01.219Z,19.62
2018-01-15T00:27:28.825Z,17.27
2018-01-15T00:29:57.194Z,18.75
2018-01-15T00:32:24.789Z,18.92
2018-01-15T00:34:52.374Z,19.00
2018-01-15T00:37:19.980Z,17.87
2018-01-15T00:39:47.596Z,19.37
2018-01-15T00:42:15.201Z,18.45
2018-01-15T00:44:42.808Z,18.55
2018-01-15T00:47:10.419Z,18.20
2018-01-15T00:49:38.033Z,17.35
2018-01-15T00:52:05.632Z,18.02
2018-01-15T00:54:33.258Z,18.95
2018-01-15T00:57:00.840Z,18.25
2018-01-15T00:59:28.457Z,18.98
2018-01-15T01:01:56.064Z,18.25
2018-01-15T01:04:23.660Z,18.85
2018-01-15T01:06:51.262Z,18.48
2018-01-15T01:09:18.897Z,19.20
2018-01-15T01:11:46.495Z,19.75
2018-01-15T01:14:14.079Z,18.90
2018-01-15T01:16:41.705Z,17.35
2018-01-15T01:19:09.312Z,18.60
2018-01-15T01:21:36.922Z,19.23
2018-01-15T01:24:04.549Z,20.70
2018-01-15T01:26:32.915Z,18.30
2018-01-15T01:29:00.516Z,17.52
2018-01-15T01:31:28.122Z,18.30
2018-01-15T01:33:55.731Z,18.00
2018-01-15T01:36:23.325Z,17.55
2018-01-15T01:38:50.945Z,18.35
2018-01-15T01:41:19.317Z,18.65
2018-01-15T01:43:47.675Z,19.70
2018-01-15T01:46:15.296Z,19.20
2018-01-15T01:48:42.898Z,20.08
2018-01-15T01:51:10.509Z,17.17
2018-01-15T01:53:38.100Z,19.90
2018-01-15T01:56:05.702Z,18.15
2018-01-15T01:58:34.112Z,18.40
2018-01-15T02:01:01.722Z,17.87
2018-01-15T02:03:29.319Z,19.17
2018-01-15T02:05:56.915Z,18.35
2018-01-15T02:08:24.522Z,16.27
2018-01-15T02:10:52.159Z,17.92
2018-01-15T02:13:19.751Z,15.77
2018-01-15T02:15:48.125Z,17.23
2018-01-15T02:18:16.506Z,18.50
2018-01-15T02:20:44.859Z,17.58
2018-01-15T02:23:12.476Z,17.95
2018-01-15T02:25:40.085Z,18.23
2018-01-15T02:28:07.695Z,17.73
2018-01-15T02:30:35.310Z,17.52
2018-01-15T02:33:02.915Z,18.73
2018-01-15T02:35:30.570Z,18.58
2018-01-15T02:37:58.929Z,18.20
2018-01-15T02:40:27.297Z,17.55
2018-01-15T02:42:54.875Z,19.00
2018-01-15T02:45:23.242Z,17.73
2018-01-15T02:47:50.865Z,16.80
2018-01-15T02:50:18.474Z,18.65
2018-01-15T02:52:46.834Z,19.35
2018-01-15T02:55:14.439Z,17.98
2018-01-15T02:57:42.029Z,18.83
2018-01-15T03:00:09.672Z,20.25
2018-01-15T03:02:37.265Z,18.00
2018-01-15T03:05:04.871Z,17.25
2018-01-15T03:07:33.225Z,18.50
2018-01-15T03:10:00.819Z,20.25
2018-01-15T03:12:28.437Z,20.30
2018-01-15T03:14:56.061Z,19.90
2018-01-15T03:17:23.658Z,18.52
2018-01-15T03:19:51.236Z,20.45
2018-01-15T03:22:18.845Z,19.60
2018-01-15T03:24:46.482Z,21.80
2018-01-15T03:27:14.077Z,20.60
2018-01-15T03:29:41.664Z,20.52
2018-01-15T03:32:09.255Z,20.30
2018-01-15T03:34:37.634Z,19.77
2018-01-15T03:37:06.038Z,19.23
2018-01-15T03:39:39.772Z,20.20
2018-01-15T03:42:07.388Z,20.08
2018-01-15T03:44:35.758Z,20.88
2018-01-15T03:47:04.126Z,19.87
2018-01-15T03:49:31.709Z,19.65
2018-01-15T03:52:00.097Z,19.23
2018-01-15T03:54:27.707Z,19.52
2018-01-15T03:56:55.313Z,20.83
2018-01-15T03:59:22.930Z,21.08
2018-01-15T04:01:50.543Z,19.08
2018-01-15T04:04:18.233Z,20.58
2018-01-15T04:06:45.862Z,19.33
2018-01-15T04:09:13.459Z,20.00
2018-01-15T04:11:41.211Z,18.85
2018-01-15T04:14:08.807Z,20.10
2018-01-15T04:16:36.409Z,19.98
2018-01-15T04:19:04.114Z,19.62
2018-01-15T04:21:32.483Z,19.60
2018-01-15T04:24:07.377Z,20.67
2018-01-15T04:26:35.735Z,19.73
2018-01-15T04:29:03.315Z,20.05
2018-01-15T04:31:31.680Z,20.50
2018-01-15T04:33:59.280Z,20.02
2018-01-15T04:36:26.937Z,20.48
2018-01-15T04:38:54.622Z,19.10
2018-01-15T04:41:22.216Z,19.80
2018-01-15T04:43:49.839Z,18.98
2018-01-15T04:46:17.427Z,19.20
2018-01-15T04:48:45.075Z,20.73
2018-01-15T04:51:12.667Z,20.10
2018-01-15T04:53:40.251Z,20.27
2018-01-15T04:56:07.852Z,19.05
2018-01-15T04:58:35.452Z,20.27
2018-01-15T05:01:03.077Z,19.80
2018-01-15T05:03:30.675Z,20.37
2018-01-15T05:05:58.299Z,18.15
2018-01-15T05:08:25.892Z,20.70
2018-01-15T05:10:53.494Z,19.15
2018-01-15T05:13:21.104Z,19.13
2018-01-15T05:15:48.715Z,19.80
2018-01-15T05:18:16.318Z,19.10
2018-01-15T05:20:43.941Z,21.00
2018-01-15T05:23:11.540Z,20.23
2018-01-15T05:25:39.163Z,20.83
2018-01-15T05:28:06.780Z,20.70
2018-01-15T05:30:34.398Z,20.42
2018-01-15T05:33:02.000Z,19.77
2018-01-15T05:35:29.629Z,20.30
2018-01-15T05:38:03.262Z,20.52
2018-01-15T05:40:30.883Z,20.20
2018-01-15T05:42:58.482Z,22.10
2018-01-15T05:45:34.355Z,19.87
2018-01-15T05:48:02.736Z,20.70
2018-01-15T05:50:30.871Z,20.87
2018-01-15T05:52:58.479Z,19.80
2018-01-15T05:55:26.851Z,19.87
2018-01-15T05:57:55.207Z,20.27
2018-01-15T06:00:22.845Z,21.95
2018-01-15T06:02:50.471Z,18.27
2018-01-15T06:05:18.082Z,21.33
2018-01-15T06:07:45.698Z,20.40
2018-01-15T06:10:13.297Z,18.27
2018-01-15T06:12:40.889Z,19.17
2018-01-15T06:15:10.429Z,19.07
2018-01-15T06:17:38.008Z,21.07
2018-01-15T06:20:05.603Z,18.85
2018-01-15T06:22:33.221Z,20.37
2018-01-15T06:25:00.797Z,20.87
2018-01-15T06:27:28.412Z,18.30
2018-01-15T06:30:02.562Z,18.70
2018-01-15T06:32:31.054Z,18.93
2018-01-15T06:34:58.653Z,19.95
2018-01-15T06:37:26.254Z,20.47
2018-01-15T06:39:53.853Z,19.95
2018-01-15T06:42:22.209Z,19.12
2018-01-15T06:44:49.829Z,18.47
2018-01-15T06:47:17.449Z,19.77
2018-01-15T06:49:45.037Z,21.03
2018-01-15T06:52:12.624Z,19.30
2018-01-15T06:54:40.979Z,18.77
2018-01-15T06:57:08.591Z,20.03
2018-01-15T06:59:36.183Z,19.00
2018-01-15T07:02:03.814Z,18.60
2018-01-15T07:04:31.416Z,17.83
2018-01-15T07:06:59.018Z,17.63
2018-01-15T07:09:26.659Z,17.73
2018-01-15T07:11:54.668Z,18.87
2018-01-15T07:14:22.273Z,18.60
2018-01-15T07:16:49.882Z,16.63
2018-01-15T07:19:17.474Z,18.40
2018-01-15T07:21:45.100Z,17.40
2018-01-15T07:24:13.449Z,17.57
2018-01-15T07:26:41.073Z,18.05
2018-01-15T07:29:08.652Z,17.90
2018-01-15T07:31:36.236Z,17.50
2018-01-15T07:34:03.869Z,17.80
2018-01-15T07:36:31.463Z,16.70
2018-01-15T07:38:59.821Z,16.00
2018-01-15T07:41:27.417Z,15.63
2018-01-15T07:43:55.768Z,17.30
2018-01-15T07:46:23.376Z,19.07
2018-01-15T07:48:50.982Z,17.90
2018-01-15T07:51:18.606Z,17.17
2018-01-15T07:53:46.190Z,18.27
2018-01-15T07:56:13.772Z,19.10
2018-01-15T07:58:41.445Z,17.23
2018-01-15T08:01:09.807Z,17.23
2018-01-15T08:03:37.379Z,17.90
2018-01-15T08:06:04.973Z,17.27
2018-01-15T08:08:32.561Z,17.70
2018-01-15T08:11:00.191Z,16.95
2018-01-15T08:13:27.779Z,15.40
2018-01-15T08:15:55.362Z,16.60
2018-01-15T08:18:22.951Z,16.93
2018-01-15T08:20:51.356Z,14.55
2018-01-15T08:23:19.743Z,16.13
2018-01-15T08:25:47.319Z,15.43
2018-01-15T08:28:14.914Z,15.60
2018-01-15T08:30:42.504Z,15.37
2018-01-15T08:33:10.879Z,13.73
2018-01-15T08:35:39.282Z,14.00
2018-01-15T08:38:06.875Z,14.70
2018-01-15T08:40:34.465Z,14.83
2018-01-15T08:43:02.066Z,13.80
2018-01-15T08:45:29.655Z,14.40
2018-01-15T08:47:57.267Z,12.50
2018-01-15T08:50:26.569Z,12.97
2018-01-15T08:52:54.925Z,14.53
2018-01-15T08:55:22.517Z,13.80
2018-01-15T08:57:50.869Z,14.00
2018-01-15T09:00:18.784Z,12.27
2018-01-15T09:02:46.370Z,13.73
2018-01-15T09:05:13.964Z,14.00
2018-01-15T09:07:41.556Z,14.73
2018-01-15T09:10:09.142Z,15.13
2018-01-15T09:12:36.752Z,14.73
2018-01-15T09:15:04.355Z,14.03
2018-01-15T09:17:31.968Z,14.90
2018-01-15T09:19:59.580Z,13.97
2018-01-15T09:22:27.176Z,14.40
2018-01-15T09:24:54.801Z,14.80
2018-01-15T09:27:22.404Z,14.57
2018-01-15T09:29:49.993Z,14.27
2018-01-15T09:32:18.342Z,14.80
2018-01-15T09:34:45.933Z,15.30
2018-01-15T09:37:14.305Z,14.40
2018-01-15T09:39:42.670Z,14.80
2018-01-15T09:42:10.247Z,15.37
2018-01-15T09:44:38.634Z,14.57
2018-01-15T09:47:06.989Z,13.83
2018-01-15T09:49:34.615Z,12.70
2018-01-15T09:52:02.219Z,13.20
2018-01-15T09:54:29.795Z,14.20
2018-01-15T09:56:58.161Z,14.83
2018-01-15T09:59:26.533Z,13.30
2018-01-15T10:01:54.156Z,13.60
2018-01-15T10:04:21.761Z,13.60
2018-01-15T10:06:50.120Z,12.00
2018-01-15T10:09:17.703Z,12.00
2018-01-15T10:11:51.760Z,13.80
2018-01-15T10:14:19.403Z,13.97
2018-01-15T10:16:47.005Z,13.50
2018-01-15T10:19:14.595Z,14.23
2018-01-15T10:21:43.001Z,13.37
2018-01-15T10:24:10.619Z,11.87
2018-01-15T10:26:38.237Z,11.83
2018-01-15T10:29:05.838Z,11.50
2018-01-15T10:31:33.433Z,12.23
2018-01-15T10:34:01.784Z,11.90
2018-01-15T10:36:29.382Z,12.47
2018-01-15T10:38:57.424Z,11.27
2018-01-15T10:41:25.009Z,10.20
2018-01-15T10:43:53.359Z,10.93
2018-01-15T10:46:20.940Z,11.50
2018-01-15T10:48:49.282Z,12.10
2018-01-15T10:51:16.930Z,11.00
2018-01-15T10:53:44.505Z,10.30
2018-01-15T10:56:12.117Z,10.90
2018-01-15T10:58:39.707Z,10.70
2018-01-15T11:01:12.850Z,12.20
2018-01-15T11:03:41.250Z,10.20
2018-01-15T11:06:08.850Z,11.07
2018-01-15T11:08:36.454Z,10.23
2018-01-15T11:11:04.799Z,14.03
2018-01-15T11:13:32.372Z,9.37
2018-01-15T11:16:00.037Z,10.57
2018-01-15T11:18:27.600Z,9.87
2018-01-15T11:20:55.192Z,11.70
2018-01-15T11:23:22.810Z,11.10
2018-01-15T11:25:50.392Z,10.37
2018-01-15T11:28:18.002Z,10.60
2018-01-15T11:30:45.625Z,10.97
2018-01-15T11:33:13.984Z,10.27
2018-01-15T11:35:41.574Z,10.23
2018-01-15T11:38:09.928Z,10.27
2018-01-15T11:40:37.559Z,11.13
2018-01-15T11:43:05.162Z,10.67
2018-01-15T11:45:33.510Z,10.63
2018-01-15T11:48:01.124Z,10.57
2018-01-15T11:50:28.733Z,10.33
2018-01-15T11:52:56.353Z,11.37
2018-01-15T11:55:23.941Z,10.70
2018-01-15T11:57:51.520Z,10.77
2018-01-15T12:00:19.120Z,10.30
2018-01-15T12:02:47.463Z,10.83
2018-01-15T12:05:15.080Z,11.00
2018-01-15T12:07:42.674Z,10.20
2018-01-15T12:10:10.271Z,10.03
2018-01-15T12:12:38.660Z,9.83
2018-01-15T12:15:07.001Z,9.87
2018-01-15T12:17:34.609Z,10.20
2018-01-15T12:20:02.479Z,9.87
2018-01-15T12:22:38.525Z,9.80
2018-01-15T12:25:06.868Z,10.70
2018-01-15T12:27:34.441Z,9.37
2018-01-15T12:30:02.065Z,9.70
2018-01-15T12:32:29.630Z,9.53
2018-01-15T12:35:00.395Z,10.40
2018-01-15T12:37:27.986Z,10.27
2018-01-15T12:39:56.336Z,9.93
2018-01-15T12:42:23.912Z,10.50
2018-01-15T12:44:52.320Z,9.30
2018-01-15T12:47:20.534Z,9.43
2018-01-15T12:49:48.136Z,10.50
2018-01-15T12:52:15.731Z,9.40
2018-01-15T12:54:43.300Z,9.10
2018-01-15T12:57:10.922Z,9.77
2018-01-15T12:59:39.311Z,9.83
2018-01-15T13:02:06.923Z,10.90
2018-01-15T13:04:34.542Z,11.57
2018-01-15T13:07:02.122Z,9.63
2018-01-15T13:09:29.730Z,11.13
2018-01-15T13:11:57.314Z,10.17
2018-01-15T13:14:25.647Z,9.90
2018-01-15T13:16:53.265Z,11.00
2018-01-15T13:19:21.794Z,9.50
2018-01-15T13:21:49.384Z,11.10
2018-01-15T13:24:17.746Z,9.03
2018-01-15T13:26:45.345Z,12.33
2018-01-15T13:29:12.952Z,11.20
2018-01-15T13:31:40.534Z,9.87
2018-01-15T13:34:08.126Z,8.80
2018-01-15T13:36:35.699Z,9.93
2018-01-15T13:39:03.301Z,10.57
2018-01-15T13:41:30.901Z,12.20
2018-01-15T13:43:59.248Z,11.93
2018-01-15T13:46:26.838Z,11.50
2018-01-15T13:49:01.714Z,11.80
2018-01-15T13:51:29.311Z,11.33
2018-01-15T13:53:56.927Z,11.20
2018-01-15T13:56:24.528Z,11.90
2018-01-15T13:58:52.908Z,11.20
2018-01-15T14:01:20.508Z,13.20
2018-01-15T14:03:48.108Z,11.83
2018-01-15T14:06:15.718Z,12.23
2018-01-15T14:08:43.347Z,11.53
2018-01-15T14:11:10.943Z,12.73
2018-01-15T14:13:39.316Z,12.63
2018-01-15T14:16:07.678Z,13.47
2018-01-15T14:18:36.060Z,11.60
2018-01-15T14:21:03.673Z,13.27
2018-01-15T14:23:31.268Z,11.93
2018-01-15T14:25:58.879Z,13.13
2018-01-15T14:28:26.468Z,12.63
2018-01-15T14:30:54.080Z,12.00
2018-01-15T14:33:22.463Z,11.10
2018-01-15T14:35:50.815Z,12.33
2018-01-15T14:38:21.742Z,12.27
2018-01-15T14:40:49.343Z,13.63
2018-01-15T14:43:17.746Z,11.57
2018-01-15T14:45:45.350Z,11.63
2018-01-15T14:48:12.954Z,12.13
2018-01-15T14:50:40.870Z,11.67
2018-01-15T14:53:08.494Z,11.47
2018-01-15T14:55:38.105Z,10.90
2018-01-15T14:58:05.706Z,11.93
2018-01-15T15:00:33.313Z,9.50
2018-01-15T15:03:00.920Z,9.27
2018-01-15T15:05:28.522Z,8.80
2018-01-15T15:07:56.908Z,9.30
2018-01-15T15:10:24.502Z,10.50
2018-01-15T15:12:52.106Z,12.17
2018-01-15T15:15:19.726Z,11.07
2018-01-15T15:17:47.328Z,12.07
2018-01-15T15:20:14.958Z,10.97
2018-01-15T15:23:01.920Z,10.87
2018-01-15T15:25:30.288Z,11.90
2018-01-15T15:27:58.643Z,10.30
2018-01-15T15:30:26.260Z,11.33
2018-01-15T15:32:53.865Z,11.40
2018-01-15T15:35:21.465Z,9.70
2018-01-15T15:37:49.811Z,10.70
2018-01-15T15:40:17.397Z,10.20
2018-01-15T15:42:45.785Z,11.47
2018-01-15T15:45:13.377Z,10.17
2018-01-15T15:47:40.973Z,9.77
2018-01-15T15:50:08.556Z,10.20
2018-01-15T15:52:36.921Z,10.23
2018-01-15T15:55:04.546Z,11.03
2018-01-15T15:57:32.154Z,12.30
2018-01-15T16:00:00.543Z,10.83
2018-01-15T16:02:28.892Z,11.23
2018-01-15T16:04:56.521Z,10.83
2018-01-15T16:07:24.162Z,12.50
2018-01-15T16:09:51.747Z,12.23
2018-01-15T16:12:19.332Z,13.00
2018-01-15T16:14:46.947Z,13.83
2018-01-15T16:17:14.542Z,12.50
2018-01-15T16:19:42.179Z,12.00
2018-01-15T16:22:22.690Z,13.30
2018-01-15T16:24:50.358Z,12.80
2018-01-15T16:27:22.391Z,13.37
2018-01-15T16:29:51.074Z,11.80
2018-01-15T16:32:18.682Z,12.93
2018-01-15T16:34:46.350Z,13.17
2018-01-15T16:37:17.789Z,12.40
2018-01-15T16:39:45.395Z,12.47
2018-01-15T16:42:16.272Z,12.47
2018-01-15T16:44:43.880Z,13.27
2018-01-15T16:47:19.387Z,12.30
2018-01-15T16:49:48.085Z,11.60
2018-01-15T16:52:15.669Z,11.70
2018-01-15T16:54:47.179Z,11.10
2018-01-15T16:57:14.790Z,10.90
2018-01-15T16:59:42.539Z,10.20
2018-01-15T17:02:10.137Z,9.20
2018-01-15T17:04:37.741Z,9.67
2018-01-15T17:07:05.350Z,10.23
2018-01-15T17:09:41.433Z,8.37
2018-01-15T17:12:09.041Z,8.67
2018-01-15T17:14:37.389Z,10.40
2018-01-15T17:17:07.010Z,9.27
2018-01-15T17:19:34.609Z,10.70
2018-01-15T17:22:02.197Z,10.00
2018-01-15T17:24:29.808Z,11.30
2018-01-15T17:26:58.178Z,8.97
2018-01-15T17:29:25.767Z,9.57
2018-01-15T17:31:54.175Z,10.20
2018-01-15T17:34:21.887Z,10.20
2018-01-15T17:36:50.267Z,10.30
2018-01-15T17:39:18.634Z,9.30
2018-01-15T17:41:46.264Z,9.60
2018-01-15T17:44:13.848Z,10.53
2018-01-15T17:46:41.427Z,17.40
2018-01-15T17:49:09.047Z,11.47
2018-01-15T17:51:36.642Z,9.93
2018-01-15T17:54:04.273Z,11.07
2018-01-15T17:56:31.872Z,12.57
2018-01-15T17:59:05.928Z,10.67
2018-01-15T18:01:33.511Z,11.73
2018-01-15T18:04:01.127Z,11.13
2018-01-15T18:06:29.520Z,12.73
2018-01-15T18:08:57.148Z,11.60
2018-01-15T18:11:25.507Z,10.60
2018-01-15T18:13:53.263Z,13.10
2018-01-15T18:16:20.877Z,11.00
2018-01-15T18:18:48.545Z,11.20
2018-01-15T18:21:16.189Z,10.63
2018-01-15T18:23:44.558Z,13.17
2018-01-15T18:26:12.157Z,13.87
2018-01-15T18:28:57.738Z,10.23
2018-01-15T18:31:31.051Z,12.93
2018-01-15T18:33:58.650Z,13.43
2018-01-15T18:36:26.235Z,13.20
2018-01-15T18:38:54.609Z,16.47
2018-01-15T18:41:22.977Z,12.03
2018-01-15T18:43:50.590Z,14.63
2018-01-15T18:46:19.172Z,12.33
2018-01-15T18:48:46.852Z,14.87
2018-01-15T18:51:14.445Z,11.70
2018-01-15T18:53:42.813Z,12.70
2018-01-15T18:56:10.453Z,15.83
2018-01-15T18:58:38.066Z,11.10
2018-01-15T19:01:07.453Z,12.17
2018-01-15T19:03:35.082Z,12.10
2018-01-15T19:06:15.146Z,12.70
2018-01-15T19:08:42.785Z,10.27
2018-01-15T19:11:11.121Z,11.63
2018-01-15T19:13:39.907Z,10.93
2018-01-15T19:16:07.518Z,11.30
2018-01-15T19:18:39.080Z,11.03
2018-01-15T19:21:06.712Z,11.50
2018-01-15T19:23:34.341Z,11.73
2018-01-15T19:26:01.993Z,12.60
2018-01-15T19:28:29.623Z,11.27
2018-01-15T19:30:57.224Z,11.53
2018-01-15T19:33:25.687Z,12.80
2018-01-15T19:35:59.000Z,11.20
2018-01-15T19:38:31.865Z,11.20
2018-01-15T19:40:59.468Z,11.00
2018-01-15T19:43:28.888Z,10.37
2018-01-15T19:46:02.358Z,9.80
2018-01-15T19:48:36.290Z,10.10
2018-01-15T19:51:09.654Z,9.30
2018-01-15T19:53:42.943Z,7.43
2018-01-15T19:56:16.261Z,7.03
2018-01-15T19:58:50.350Z,7.97
2018-01-15T20:01:24.503Z,9.70
2018-01-15T20:03:57.813Z,8.70
2018-01-15T20:06:31.040Z,8.73
2018-01-15T20:09:04.410Z,9.83
2018-01-15T20:11:32.014Z,7.20
2018-01-15T20:14:00.419Z,7.70
2018-01-15T20:16:35.682Z,8.77
2018-01-15T20:19:03.290Z,7.40
2018-01-15T20:21:31.670Z,7.57
2018-01-15T20:23:59.270Z,6.80
2018-01-15T20:26:26.862Z,6.10
2018-01-15T20:28:54.479Z,7.20
2018-01-15T20:31:22.078Z,7.07
2018-01-15T20:33:49.682Z,6.77
2018-01-15T20:36:17.299Z,7.07
2018-01-15T20:38:53.095Z,6.60
2018-01-15T20:41:20.763Z,6.57
2018-01-15T20:43:49.121Z,6.57
2018-01-15T20:46:16.737Z,6.23
2018-01-15T20:48:54.480Z,6.10
2018-01-15T20:51:22.076Z,6.20
2018-01-15T20:53:50.464Z,5.57
2018-01-15T20:56:26.576Z,5.90
2018-01-15T20:58:54.206Z,5.30
2018-01-15T21:01:21.795Z,4.57
2018-01-15T21:03:49.403Z,5.70
2018-01-15T21:06:17.002Z,5.10
2018-01-15T21:08:44.607Z,5.40
2018-01-15T21:11:25.115Z,4.80
2018-01-15T21:13:52.696Z,4.70
2018-01-15T21:16:20.315Z,5.00
2018-01-15T21:18:47.906Z,4.80
2018-01-15T21:21:15.503Z,5.33
2018-01-15T21:23:43.117Z,4.60
2018-01-15T21:26:10.722Z,5.53
2018-01-15T21:28:38.300Z,4.77
2018-01-15T21:31:06.672Z,5.50
2018-01-15T21:33:34.398Z,5.30
2018-01-15T21:36:02.015Z,4.80
2018-01-15T21:38:42.805Z,4.70
2018-01-15T21:41:10.424Z,5.20
2018-01-15T21:43:38.011Z,4.90
2018-01-15T21:46:06.370Z,4.53
2018-01-15T21:48:34.754Z,5.70
2018-01-15T21:51:03.145Z,4.90
2018-01-15T21:53:31.519Z,5.00
2018-01-15T21:55:59.894Z,5.60
2018-01-15T21:58:28.270Z,4.93
2018-01-15T22:00:56.633Z,5.50
2018-01-15T22:03:32.150Z,4.53
2018-01-15T22:05:59.783Z,4.40
2018-01-15T22:08:27.376Z,4.40
2018-01-15T22:10:54.955Z,4.50
2018-01-15T22:13:22.552Z,4.83
2018-01-15T22:15:50.917Z,4.20
2018-01-15T22:18:18.544Z,3.60
2018-01-15T22:20:46.134Z,4.00
2018-01-15T22:23:13.725Z,3.83
2018-01-15T22:25:43.308Z,3.40
2018-01-15T22:28:10.908Z,4.13
2018-01-15T22:30:38.540Z,3.33
2018-01-15T22:33:06.903Z,4.37
2018-01-15T22:35:34.498Z,2.90
2018-01-15T22:38:02.101Z,2.83
2018-01-15T22:40:29.693Z,3.30
2018-01-15T22:42:57.311Z,3.50
2018-01-15T22:45:24.900Z,3.00
2018-01-15T22:47:52.520Z,3.40
2018-01-15T22:50:20.115Z,2.77
2018-01-15T22:52:47.722Z,2.53
2018-01-15T22:55:15.353Z,2.67
2018-01-15T22:57:42.939Z,2.77
2018-01-15T23:00:11.322Z,2.27
2018-01-15T23:02:38.925Z,2.90
2018-01-15T23:05:06.504Z,2.20
2018-01-15T23:07:34.135Z,2.00
2018-01-15T23:10:01.728Z,1.70
2018-01-15T23:12:29.348Z,1.50
2018-01-15T23:14:56.948Z,2.20
2018-01-15T23:17:24.560Z,1.63
2018-01-15T23:19:52.180Z,1.70
2018-01-15T23:22:19.776Z,1.60
2018-01-15T23:24:47.406Z,1.70
2018-01-15T23:27:14.992Z,2.00
2018-01-15T23:29:43.347Z,1.33
2018-01-15T23:32:10.989Z,2.17
2018-01-15T23:34:38.631Z,1.60
2018-01-15T23:37:06.211Z,1.80
2018-01-15T23:39:34.585Z,1.83
2018-01-15T23:42:02.179Z,1.40
2018-01-15T23:44:29.782Z,1.90
2018-01-15T23:46:57.369Z,1.73
2018-01-15T23:49:24.956Z,1.80
2018-01-15T23:51:52.559Z,1.40
2018-01-15T23:54:33.205Z,1.77
2018-01-15T23:57:01.598Z,1.10
2018-01-15T23:59:29.204Z,1.20
